This is the latest recevied weather packets stored in our database for station/object KA1JKB. If no packets are shown the sender has not sent any weather packets the latest 10 day(s).
| Time | Temp. | Humidity | Pressure | Rain* | Wind** | Luminosity | Snow |
|---|---|---|---|---|---|---|---|
| 1777845441 | 15° C | 51% | 1007.2 hPa | 0 mm | - | 135 W/m² | - |
| 1777845139 | 15.56° C | 50% | 1007.4 hPa | 0 mm | - | 159 W/m² | - |
| 1777844837 | 15.56° C | 49% | 1007.1 hPa | 0 mm | - | 220 W/m² | - |
| 1777844533 | 15.56° C | 49% | 1006.9 hPa | 0 mm | - | 242 W/m² | - |
| 1777844231 | 15.56° C | 48% | 1007.2 hPa | 0 mm | - | 168 W/m² | - |
| 1777843928 | 15.56° C | 48% | 1006.9 hPa | 0 mm | - | 165 W/m² | - |
| 1777843625 | 16.11° C | 47% | 1007.2 hPa | 0 mm | - | 191 W/m² | - |
| 1777843323 | 16.11° C | 46% | 1007 hPa | 0 mm | - | 202 W/m² | - |
| 1777843020 | 15.56° C | 47% | 1007 hPa | 0 mm | - | 571 W/m² | - |
| 1777842715 | 16.11° C | 46% | 1007.2 hPa | 0 mm | - | 241 W/m² | - |
| 1777842412 | 16.11° C | 46% | 1007.2 hPa | 0 mm | - | 288 W/m² | - |
| 1777842109 | 16.11° C | 47% | 1007.3 hPa | 0 mm | - | 196 W/m² | - |
| 1777841804 | 16.11° C | 46% | 1007.4 hPa | 0 mm | - | 203 W/m² | - |
| 1777841501 | 16.67° C | 45% | 1007.3 hPa | 0 mm | - | 311 W/m² | - |
| 1777841197 | 16.67° C | 46% | 1007.2 hPa | 0 mm | - | 533 W/m² | - |
| 1777840895 | 17.22° C | 44% | 1007.4 hPa | 0 mm | - | 514 W/m² | - |
| 1777840592 | 16.67° C | 44% | 1007.3 hPa | 0 mm | - | 627 W/m² | - |
| 1777840290 | 16.11° C | 43% | 1007.3 hPa | 0 mm | - | 709 W/m² | - |
| 1777839987 | 17.22° C | 43% | 1007.2 hPa | 0 mm | - | 163 W/m² | - |
| 1777839685 | 17.22° C | 42% | 1007.5 hPa | 0 mm | - | 341 W/m² | - |
| 1777839383 | 17.78° C | 40% | 1007.4 hPa | 0 mm | - | 586 W/m² | - |
| 1777839079 | 17.22° C | 42% | 1007.4 hPa | 0 mm | - | 598 W/m² | - |
| 1777838776 | 16.67° C | 45% | 1007.6 hPa | 0 mm | - | 606 W/m² | - |
| 1777838472 | 17.22° C | 42% | 1007.6 hPa | 0 mm | - | 236 W/m² | - |
| 1777838169 | 16.11° C | 44% | 1007.4 hPa | 0 mm | - | 255 W/m² | - |
* Rain latest hour (hover to see other rain measurements)
** Current wind speed in m/s (hover to see current wind gust speed)